sensor_id;sensor_type;location;lat;lon;timestamp;temperature;humidity
44063;DHT22;29727;47.606;19.130;2023-03-01T00:02:02;8.20;59.30
44063;DHT22;29727;47.606;19.130;2023-03-01T00:04:30;7.30;58.80
44063;DHT22;29727;47.606;19.130;2023-03-01T00:06:56;8.20;59.40
44063;DHT22;29727;47.606;19.130;2023-03-01T00:09:21;8.20;59.30
44063;DHT22;29727;47.606;19.130;2023-03-01T00:11:48;8.10;59.20
44063;DHT22;29727;47.606;19.130;2023-03-01T00:14:14;8.10;59.20
44063;DHT22;29727;47.606;19.130;2023-03-01T00:16:42;8.20;59.30
44063;DHT22;29727;47.606;19.130;2023-03-01T00:19:14;8.10;59.50
44063;DHT22;29727;47.606;19.130;2023-03-01T00:21:41;8.10;59.40
44063;DHT22;29727;47.606;19.130;2023-03-01T00:24:07;8.10;59.20
44063;DHT22;29727;47.606;19.130;2023-03-01T00:26:33;8.10;59.20
44063;DHT22;29727;47.606;19.130;2023-03-01T00:28:59;8.10;59.20
44063;DHT22;29727;47.606;19.130;2023-03-01T00:31:27;8.10;59.30
44063;DHT22;29727;47.606;19.130;2023-03-01T00:33:54;8.10;59.30
44063;DHT22;29727;47.606;19.130;2023-03-01T00:36:25;8.10;58.80
44063;DHT22;29727;47.606;19.130;2023-03-01T00:38:51;8.10;58.90
44063;DHT22;29727;47.606;19.130;2023-03-01T00:41:18;8.00;59.20
44063;DHT22;29727;47.606;19.130;2023-03-01T00:43:44;8.10;59.40
44063;DHT22;29727;47.606;19.130;2023-03-01T00:46:15;8.00;59.50
44063;DHT22;29727;47.606;19.130;2023-03-01T00:48:41;8.00;59.90
44063;DHT22;29727;47.606;19.130;2023-03-01T00:51:09;8.10;59.20
44063;DHT22;29727;47.606;19.130;2023-03-01T00:53:36;8.00;59.00
44063;DHT22;29727;47.606;19.130;2023-03-01T00:56:03;8.10;58.90
44063;DHT22;29727;47.606;19.130;2023-03-01T00:58:29;8.00;58.90
44063;DHT22;29727;47.606;19.130;2023-03-01T01:00:55;8.00;59.10
44063;DHT22;29727;47.606;19.130;2023-03-01T01:03:21;8.00;59.60
44063;DHT22;29727;47.606;19.130;2023-03-01T01:05:47;8.00;59.50
44063;DHT22;29727;47.606;19.130;2023-03-01T01:08:12;8.00;59.30
44063;DHT22;29727;47.606;19.130;2023-03-01T01:10:38;8.00;58.60
44063;DHT22;29727;47.606;19.130;2023-03-01T01:13:04;8.00;58.50
44063;DHT22;29727;47.606;19.130;2023-03-01T01:15:33;8.00;58.60
44063;DHT22;29727;47.606;19.130;2023-03-01T01:18:00;8.00;58.80
44063;DHT22;29727;47.606;19.130;2023-03-01T01:20:26;8.00;58.90
44063;DHT22;29727;47.606;19.130;2023-03-01T01:22:51;8.00;59.00
44063;DHT22;29727;47.606;19.130;2023-03-01T01:25:18;8.00;59.00
44063;DHT22;29727;47.606;19.130;2023-03-01T01:27:43;8.00;59.20
44063;DHT22;29727;47.606;19.130;2023-03-01T01:30:09;8.00;59.30
44063;DHT22;29727;47.606;19.130;2023-03-01T01:32:35;8.00;59.50
44063;DHT22;29727;47.606;19.130;2023-03-01T01:35:01;8.00;59.50
44063;DHT22;29727;47.606;19.130;2023-03-01T01:37:27;8.00;59.30
44063;DHT22;29727;47.606;19.130;2023-03-01T01:40:00;8.00;59.30
44063;DHT22;29727;47.606;19.130;2023-03-01T01:42:27;8.00;59.30
44063;DHT22;29727;47.606;19.130;2023-03-01T01:45:32;8.00;59.00
44063;DHT22;29727;47.606;19.130;2023-03-01T01:48:06;8.00;59.30
44063;DHT22;29727;47.606;19.130;2023-03-01T01:50:39;8.00;59.00
44063;DHT22;29727;47.606;19.130;2023-03-01T01:53:09;7.90;59.30
44063;DHT22;29727;47.606;19.130;2023-03-01T01:55:37;7.90;59.40
44063;DHT22;29727;47.606;19.130;2023-03-01T01:58:08;7.80;59.60
44063;DHT22;29727;47.606;19.130;2023-03-01T02:00:35;7.80;59.60
44063;DHT22;29727;47.606;19.130;2023-03-01T02:03:09;7.80;60.00
44063;DHT22;29727;47.606;19.130;2023-03-01T02:08:12;7.70;60.50
44063;DHT22;29727;47.606;19.130;2023-03-01T02:10:39;7.70;60.70
44063;DHT22;29727;47.606;19.130;2023-03-01T02:13:06;7.70;60.80
44063;DHT22;29727;47.606;19.130;2023-03-01T02:15:36;7.70;60.80
44063;DHT22;29727;47.606;19.130;2023-03-01T02:18:04;7.70;60.50
44063;DHT22;29727;47.606;19.130;2023-03-01T02:23:22;7.70;61.20
44063;DHT22;29727;47.606;19.130;2023-03-01T02:25:52;7.70;60.80
44063;DHT22;29727;47.606;19.130;2023-03-01T02:28:32;7.70;60.80
44063;DHT22;29727;47.606;19.130;2023-03-01T02:30:58;7.70;60.90
44063;DHT22;29727;47.606;19.130;2023-03-01T02:33:44;7.70;60.80
44063;DHT22;29727;47.606;19.130;2023-03-01T02:36:16;7.70;61.00
44063;DHT22;29727;47.606;19.130;2023-03-01T02:38:43;7.70;61.10
44063;DHT22;29727;47.606;19.130;2023-03-01T02:41:11;7.70;61.20
44063;DHT22;29727;47.606;19.130;2023-03-01T02:43:38;7.70;61.20
44063;DHT22;29727;47.606;19.130;2023-03-01T02:46:25;7.70;61.00
44063;DHT22;29727;47.606;19.130;2023-03-01T02:48:54;7.70;60.80
44063;DHT22;29727;47.606;19.130;2023-03-01T02:56:36;7.70;60.80
44063;DHT22;29727;47.606;19.130;2023-03-01T02:59:02;7.70;60.40
44063;DHT22;29727;47.606;19.130;2023-03-01T03:01:28;7.70;60.90
44063;DHT22;29727;47.606;19.130;2023-03-01T03:04:08;7.70;60.80
44063;DHT22;29727;47.606;19.130;2023-03-01T03:06:35;7.70;61.10
44063;DHT22;29727;47.606;19.130;2023-03-01T03:09:03;7.70;61.10
44063;DHT22;29727;47.606;19.130;2023-03-01T03:11:30;7.70;61.00
44063;DHT22;29727;47.606;19.130;2023-03-01T03:13:56;7.70;61.10
44063;DHT22;29727;47.606;19.130;2023-03-01T03:16:22;7.70;61.40
44063;DHT22;29727;47.606;19.130;2023-03-01T03:18:48;7.70;61.50
44063;DHT22;29727;47.606;19.130;2023-03-01T03:21:15;7.70;61.30
44063;DHT22;29727;47.606;19.130;2023-03-01T03:23:41;7.70;61.10
44063;DHT22;29727;47.606;19.130;2023-03-01T03:26:07;7.70;61.00
44063;DHT22;29727;47.606;19.130;2023-03-01T03:28:34;7.70;61.20
44063;DHT22;29727;47.606;19.130;2023-03-01T03:31:01;7.70;61.30
44063;DHT22;29727;47.606;19.130;2023-03-01T03:33:30;7.70;61.00
44063;DHT22;29727;47.606;19.130;2023-03-01T03:35:56;7.70;61.20
44063;DHT22;29727;47.606;19.130;2023-03-01T03:38:22;7.70;61.40
44063;DHT22;29727;47.606;19.130;2023-03-01T03:40:59;7.70;61.60
44063;DHT22;29727;47.606;19.130;2023-03-01T03:43:29;7.70;61.70
44063;DHT22;29727;47.606;19.130;2023-03-01T03:45:55;7.70;61.80
44063;DHT22;29727;47.606;19.130;2023-03-01T03:48:23;7.70;61.80
44063;DHT22;29727;47.606;19.130;2023-03-01T03:50:54;7.70;61.90
44063;DHT22;29727;47.606;19.130;2023-03-01T03:53:21;7.70;62.00
44063;DHT22;29727;47.606;19.130;2023-03-01T03:55:47;7.70;62.10
44063;DHT22;29727;47.606;19.130;2023-03-01T03:58:18;7.70;62.10
44063;DHT22;29727;47.606;19.130;2023-03-01T04:00:47;7.70;62.10
44063;DHT22;29727;47.606;19.130;2023-03-01T04:03:15;7.70;62.00
44063;DHT22;29727;47.606;19.130;2023-03-01T04:05:42;7.70;62.10
44063;DHT22;29727;47.606;19.130;2023-03-01T04:08:09;7.70;61.70
44063;DHT22;29727;47.606;19.130;2023-03-01T04:13:03;7.70;62.30
44063;DHT22;29727;47.606;19.130;2023-03-01T04:15:29;7.70;62.30
44063;DHT22;29727;47.606;19.130;2023-03-01T04:17:55;7.70;62.30
44063;DHT22;29727;47.606;19.130;2023-03-01T04:20:27;7.70;62.10
44063;DHT22;29727;47.606;19.130;2023-03-01T04:23:14;7.70;62.00
44063;DHT22;29727;47.606;19.130;2023-03-01T04:25:52;7.70;62.00
44063;DHT22;29727;47.606;19.130;2023-03-01T04:28:31;7.70;62.10
44063;DHT22;29727;47.606;19.130;2023-03-01T04:31:05;7.70;62.10
44063;DHT22;29727;47.606;19.130;2023-03-01T04:33:41;7.70;61.80
44063;DHT22;29727;47.606;19.130;2023-03-01T04:36:08;7.70;61.70
44063;DHT22;29727;47.606;19.130;2023-03-01T04:38:35;7.70;61.70
44063;DHT22;29727;47.606;19.130;2023-03-01T04:41:06;7.70;61.70
44063;DHT22;29727;47.606;19.130;2023-03-01T04:43:32;7.70;61.60
44063;DHT22;29727;47.606;19.130;2023-03-01T04:46:03;7.70;61.90
44063;DHT22;29727;47.606;19.130;2023-03-01T04:48:30;7.60;62.10
44063;DHT22;29727;47.606;19.130;2023-03-01T04:50:57;7.70;62.10
44063;DHT22;29727;47.606;19.130;2023-03-01T04:53:23;7.60;61.70
44063;DHT22;29727;47.606;19.130;2023-03-01T04:55:50;7.60;61.60
44063;DHT22;29727;47.606;19.130;2023-03-01T04:58:16;7.60;61.30
44063;DHT22;29727;47.606;19.130;2023-03-01T05:00:41;7.60;61.50
44063;DHT22;29727;47.606;19.130;2023-03-01T05:03:08;7.60;61.70
44063;DHT22;29727;47.606;19.130;2023-03-01T05:05:38;7.60;61.90
44063;DHT22;29727;47.606;19.130;2023-03-01T05:08:05;7.60;61.40
44063;DHT22;29727;47.606;19.130;2023-03-01T05:10:34;7.60;61.30
44063;DHT22;29727;47.606;19.130;2023-03-01T05:13:01;7.60;61.40
44063;DHT22;29727;47.606;19.130;2023-03-01T05:15:29;7.60;61.40
44063;DHT22;29727;47.606;19.130;2023-03-01T05:17:57;7.60;61.40
44063;DHT22;29727;47.606;19.130;2023-03-01T05:20:28;7.60;61.80
44063;DHT22;29727;47.606;19.130;2023-03-01T05:22:59;7.60;61.80
44063;DHT22;29727;47.606;19.130;2023-03-01T05:25:25;7.60;61.90
44063;DHT22;29727;47.606;19.130;2023-03-01T05:27:51;7.70;62.00
44063;DHT22;29727;47.606;19.130;2023-03-01T05:30:17;7.70;61.90
44063;DHT22;29727;47.606;19.130;2023-03-01T05:32:45;7.70;61.60
44063;DHT22;29727;47.606;19.130;2023-03-01T05:35:13;7.60;61.20
44063;DHT22;29727;47.606;19.130;2023-03-01T05:37:44;7.70;61.30
44063;DHT22;29727;47.606;19.130;2023-03-01T05:40:12;7.60;61.20
44063;DHT22;29727;47.606;19.130;2023-03-01T05:42:48;7.60;61.20
44063;DHT22;29727;47.606;19.130;2023-03-01T05:45:15;7.60;60.70
44063;DHT22;29727;47.606;19.130;2023-03-01T05:47:42;7.60;60.80
44063;DHT22;29727;47.606;19.130;2023-03-01T05:50:14;7.60;60.90
44063;DHT22;29727;47.606;19.130;2023-03-01T05:52:48;7.50;60.60
44063;DHT22;29727;47.606;19.130;2023-03-01T05:55:16;7.50;61.00
44063;DHT22;29727;47.606;19.130;2023-03-01T05:57:42;7.40;61.80
44063;DHT22;29727;47.606;19.130;2023-03-01T06:00:15;7.40;61.10
44063;DHT22;29727;47.606;19.130;2023-03-01T06:02:44;7.40;61.40
44063;DHT22;29727;47.606;19.130;2023-03-01T06:05:11;7.50;61.30
44063;DHT22;29727;47.606;19.130;2023-03-01T06:07:37;7.50;61.60
44063;DHT22;29727;47.606;19.130;2023-03-01T06:10:04;7.50;61.90
44063;DHT22;29727;47.606;19.130;2023-03-01T06:12:35;7.50;62.10
44063;DHT22;29727;47.606;19.130;2023-03-01T06:15:01;7.50;61.70
44063;DHT22;29727;47.606;19.130;2023-03-01T06:17:32;7.50;61.00
44063;DHT22;29727;47.606;19.130;2023-03-01T06:19:58;7.60;60.90
44063;DHT22;29727;47.606;19.130;2023-03-01T06:22:24;7.60;60.70
44063;DHT22;29727;47.606;19.130;2023-03-01T06:24:50;7.60;60.60
44063;DHT22;29727;47.606;19.130;2023-03-01T06:27:15;7.60;60.40
44063;DHT22;29727;47.606;19.130;2023-03-01T06:29:41;7.60;60.30
44063;DHT22;29727;47.606;19.130;2023-03-01T06:32:08;7.60;60.50
44063;DHT22;29727;47.606;19.130;2023-03-01T06:34:34;7.50;60.40
44063;DHT22;29727;47.606;19.130;2023-03-01T06:36:59;7.50;60.60
44063;DHT22;29727;47.606;19.130;2023-03-01T06:39:28;7.50;61.00
44063;DHT22;29727;47.606;19.130;2023-03-01T06:41:53;7.60;60.70
44063;DHT22;29727;47.606;19.130;2023-03-01T06:44:19;7.50;60.70
44063;DHT22;29727;47.606;19.130;2023-03-01T06:46:45;7.50;61.20
44063;DHT22;29727;47.606;19.130;2023-03-01T06:49:10;7.50;61.30
44063;DHT22;29727;47.606;19.130;2023-03-01T06:51:36;7.50;61.40
44063;DHT22;29727;47.606;19.130;2023-03-01T06:54:03;7.60;61.10
44063;DHT22;29727;47.606;19.130;2023-03-01T06:56:30;7.50;60.90
44063;DHT22;29727;47.606;19.130;2023-03-01T06:58:55;7.60;61.10
44063;DHT22;29727;47.606;19.130;2023-03-01T07:01:21;7.60;61.00
44063;DHT22;29727;47.606;19.130;2023-03-01T07:03:46;7.60;60.10
44063;DHT22;29727;47.606;19.130;2023-03-01T07:06:12;7.60;59.80
44063;DHT22;29727;47.606;19.130;2023-03-01T07:08:38;7.60;60.30
44063;DHT22;29727;47.606;19.130;2023-03-01T07:11:04;7.60;60.20
44063;DHT22;29727;47.606;19.130;2023-03-01T07:13:30;7.50;60.20
44063;DHT22;29727;47.606;19.130;2023-03-01T07:15:55;7.50;59.80
44063;DHT22;29727;47.606;19.130;2023-03-01T07:18:21;7.50;59.90
44063;DHT22;29727;47.606;19.130;2023-03-01T07:20:47;7.40;60.20
44063;DHT22;29727;47.606;19.130;2023-03-01T07:23:13;7.50;60.60
44063;DHT22;29727;47.606;19.130;2023-03-01T07:25:38;7.50;60.20
44063;DHT22;29727;47.606;19.130;2023-03-01T07:28:04;7.50;60.20
44063;DHT22;29727;47.606;19.130;2023-03-01T07:30:30;7.60;60.60
44063;DHT22;29727;47.606;19.130;2023-03-01T07:32:56;7.60;60.00
44063;DHT22;29727;47.606;19.130;2023-03-01T07:35:23;7.70;59.80
44063;DHT22;29727;47.606;19.130;2023-03-01T07:37:50;7.70;59.30
44063;DHT22;29727;47.606;19.130;2023-03-01T07:40:15;7.70;60.00
44063;DHT22;29727;47.606;19.130;2023-03-01T07:42:41;7.70;59.70
44063;DHT22;29727;47.606;19.130;2023-03-01T07:45:07;7.80;60.40
44063;DHT22;29727;47.606;19.130;2023-03-01T07:47:34;7.80;59.70
44063;DHT22;29727;47.606;19.130;2023-03-01T07:50:00;7.80;59.80
44063;DHT22;29727;47.606;19.130;2023-03-01T07:52:26;7.90;60.30
44063;DHT22;29727;47.606;19.130;2023-03-01T07:54:52;7.90;60.30
44063;DHT22;29727;47.606;19.130;2023-03-01T07:57:18;8.00;59.40
44063;DHT22;29727;47.606;19.130;2023-03-01T07:59:43;8.00;59.50
44063;DHT22;29727;47.606;19.130;2023-03-01T08:02:10;8.10;59.50
44063;DHT22;29727;47.606;19.130;2023-03-01T08:04:36;8.10;59.30
44063;DHT22;29727;47.606;19.130;2023-03-01T08:07:05;8.10;59.50
44063;DHT22;29727;47.606;19.130;2023-03-01T08:09:31;8.10;59.30
44063;DHT22;29727;47.606;19.130;2023-03-01T08:11:57;8.20;59.50
44063;DHT22;29727;47.606;19.130;2023-03-01T08:14:26;8.20;59.30
44063;DHT22;29727;47.606;19.130;2023-03-01T08:16:51;8.30;58.70
44063;DHT22;29727;47.606;19.130;2023-03-01T08:19:17;8.20;59.40
44063;DHT22;29727;47.606;19.130;2023-03-01T08:21:43;8.20;58.90
44063;DHT22;29727;47.606;19.130;2023-03-01T08:24:09;8.30;59.00
44063;DHT22;29727;47.606;19.130;2023-03-01T08:26:37;8.30;58.00
44063;DHT22;29727;47.606;19.130;2023-03-01T08:29:03;8.50;58.00
44063;DHT22;29727;47.606;19.130;2023-03-01T08:31:36;8.40;58.00
44063;DHT22;29727;47.606;19.130;2023-03-01T08:34:13;8.40;57.80
44063;DHT22;29727;47.606;19.130;2023-03-01T08:36:41;8.50;57.50
44063;DHT22;29727;47.606;19.130;2023-03-01T08:39:09;8.50;57.80
44063;DHT22;29727;47.606;19.130;2023-03-01T08:41:35;8.60;57.30
44063;DHT22;29727;47.606;19.130;2023-03-01T08:44:00;8.60;57.10
44063;DHT22;29727;47.606;19.130;2023-03-01T08:46:27;8.70;56.70
44063;DHT22;29727;47.606;19.130;2023-03-01T08:48:53;8.70;57.10
44063;DHT22;29727;47.606;19.130;2023-03-01T08:51:20;8.60;57.40
44063;DHT22;29727;47.606;19.130;2023-03-01T08:53:47;8.60;57.00
44063;DHT22;29727;47.606;19.130;2023-03-01T08:56:13;8.50;57.80
44063;DHT22;29727;47.606;19.130;2023-03-01T08:58:39;8.60;57.90
44063;DHT22;29727;47.606;19.130;2023-03-01T09:01:12;8.60;57.60
44063;DHT22;29727;47.606;19.130;2023-03-01T09:03:39;8.70;57.20
44063;DHT22;29727;47.606;19.130;2023-03-01T09:06:06;8.80;56.70
44063;DHT22;29727;47.606;19.130;2023-03-01T09:08:38;8.90;56.60
44063;DHT22;29727;47.606;19.130;2023-03-01T09:11:09;9.00;56.20
44063;DHT22;29727;47.606;19.130;2023-03-01T09:13:35;9.10;55.60
44063;DHT22;29727;47.606;19.130;2023-03-01T09:16:03;9.20;56.00
44063;DHT22;29727;47.606;19.130;2023-03-01T09:18:29;9.30;55.90
44063;DHT22;29727;47.606;19.130;2023-03-01T09:23:34;9.60;54.50
44063;DHT22;29727;47.606;19.130;2023-03-01T09:26:00;9.60;55.00
44063;DHT22;29727;47.606;19.130;2023-03-01T09:28:26;9.70;55.20
44063;DHT22;29727;47.606;19.130;2023-03-01T09:30:51;9.80;54.60
44063;DHT22;29727;47.606;19.130;2023-03-01T09:33:17;9.80;54.40
44063;DHT22;29727;47.606;19.130;2023-03-01T09:35:42;9.80;54.30
44063;DHT22;29727;47.606;19.130;2023-03-01T09:38:13;9.90;54.60
44063;DHT22;29727;47.606;19.130;2023-03-01T09:40:43;9.90;54.70
44063;DHT22;29727;47.606;19.130;2023-03-01T09:43:23;9.90;54.50
44063;DHT22;29727;47.606;19.130;2023-03-01T09:45:54;9.90;54.30
44063;DHT22;29727;47.606;19.130;2023-03-01T09:48:24;10.00;54.70
44063;DHT22;29727;47.606;19.130;2023-03-01T09:50:51;10.10;54.90
44063;DHT22;29727;47.606;19.130;2023-03-01T09:53:23;10.10;53.90
44063;DHT22;29727;47.606;19.130;2023-03-01T09:55:59;10.10;54.10
44063;DHT22;29727;47.606;19.130;2023-03-01T10:01:01;10.10;54.40
44063;DHT22;29727;47.606;19.130;2023-03-01T10:03:30;10.20;53.90
44063;DHT22;29727;47.606;19.130;2023-03-01T10:06:06;10.20;54.00
44063;DHT22;29727;47.606;19.130;2023-03-01T10:08:43;10.20;53.90
44063;DHT22;29727;47.606;19.130;2023-03-01T10:11:33;10.30;53.80
44063;DHT22;29727;47.606;19.130;2023-03-01T10:22:21;10.30;54.40
44063;DHT22;29727;47.606;19.130;2023-03-01T10:24:49;10.30;54.40
44063;DHT22;29727;47.606;19.130;2023-03-01T10:27:24;10.30;55.40
44063;DHT22;29727;47.606;19.130;2023-03-01T10:32:17;10.50;54.10
44063;DHT22;29727;47.606;19.130;2023-03-01T10:34:43;10.70;53.90
44063;DHT22;29727;47.606;19.130;2023-03-01T10:37:18;10.80;53.90
44063;DHT22;29727;47.606;19.130;2023-03-01T10:39:56;10.90;53.00
44063;DHT22;29727;47.606;19.130;2023-03-01T10:44:53;11.20;53.30
44063;DHT22;29727;47.606;19.130;2023-03-01T10:47:27;11.30;52.40
44063;DHT22;29727;47.606;19.130;2023-03-01T10:50:18;11.30;52.90
44063;DHT22;29727;47.606;19.130;2023-03-01T10:52:59;11.40;52.60
44063;DHT22;29727;47.606;19.130;2023-03-01T10:55:38;11.40;52.70
44063;DHT22;29727;47.606;19.130;2023-03-01T10:58:20;11.60;52.00
44063;DHT22;29727;47.606;19.130;2023-03-01T11:03:16;11.80;51.80
44063;DHT22;29727;47.606;19.130;2023-03-01T11:05:56;11.80;51.70
44063;DHT22;29727;47.606;19.130;2023-03-01T11:14:12;12.20;51.40
44063;DHT22;29727;47.606;19.130;2023-03-01T11:16:41;12.30;50.70
44063;DHT22;29727;47.606;19.130;2023-03-01T11:24:46;12.80;51.80
44063;DHT22;29727;47.606;19.130;2023-03-01T11:27:25;13.00;50.40
44063;DHT22;29727;47.606;19.130;2023-03-01T11:30:03;13.20;50.00
44063;DHT22;29727;47.606;19.130;2023-03-01T11:32:40;13.50;50.10
44063;DHT22;29727;47.606;19.130;2023-03-01T11:35:26;13.70;49.10
44063;DHT22;29727;47.606;19.130;2023-03-01T11:40:40;14.10;48.60
44063;DHT22;29727;47.606;19.130;2023-03-01T11:45:58;14.50;48.40
44063;DHT22;29727;47.606;19.130;2023-03-01T11:48:31;14.60;48.60
44063;DHT22;29727;47.606;19.130;2023-03-01T11:51:02;14.70;48.60
44063;DHT22;29727;47.606;19.130;2023-03-01T11:56:50;14.90;48.00
44063;DHT22;29727;47.606;19.130;2023-03-01T12:12:47;15.20;47.30
44063;DHT22;29727;47.606;19.130;2023-03-01T12:15:20;15.20;46.70
44063;DHT22;29727;47.606;19.130;2023-03-01T12:20:58;15.20;47.20
44063;DHT22;29727;47.606;19.130;2023-03-01T12:29:31;15.00;47.70
44063;DHT22;29727;47.606;19.130;2023-03-01T12:35:06;14.90;48.40
44063;DHT22;29727;47.606;19.130;2023-03-01T12:43:17;15.00;47.90
44063;DHT22;29727;47.606;19.130;2023-03-01T12:51:08;15.30;47.40
44063;DHT22;29727;47.606;19.130;2023-03-01T12:53:49;15.40;48.10
44063;DHT22;29727;47.606;19.130;2023-03-01T12:56:24;15.60;46.70
44063;DHT22;29727;47.606;19.130;2023-03-01T12:59:12;15.70;46.10
44063;DHT22;29727;47.606;19.130;2023-03-01T13:04:58;15.90;45.30
44063;DHT22;29727;47.606;19.130;2023-03-01T13:07:39;15.90;45.70
44063;DHT22;29727;47.606;19.130;2023-03-01T13:10:20;16.00;45.50
44063;DHT22;29727;47.606;19.130;2023-03-01T13:13:31;16.20;46.00
44063;DHT22;29727;47.606;19.130;2023-03-01T13:15:38;16.30;44.80
44063;DHT22;29727;47.606;19.130;2023-03-01T13:18:27;16.50;45.20
44063;DHT22;29727;47.606;19.130;2023-03-01T13:20:57;16.70;44.30
44063;DHT22;29727;47.606;19.130;2023-03-01T13:23:35;16.80;44.70
44063;DHT22;29727;47.606;19.130;2023-03-01T13:31:10;17.20;42.90
44063;DHT22;29727;47.606;19.130;2023-03-01T13:39:26;17.20;42.40
44063;DHT22;29727;47.606;19.130;2023-03-01T13:41:56;17.10;42.90
44063;DHT22;29727;47.606;19.130;2023-03-01T13:47:21;17.00;43.10
44063;DHT22;29727;47.606;19.130;2023-03-01T13:52:40;17.00;43.90
44063;DHT22;29727;47.606;19.130;2023-03-01T13:55:23;17.10;43.80
44063;DHT22;29727;47.606;19.130;2023-03-01T13:58:00;17.20;44.00
44063;DHT22;29727;47.606;19.130;2023-03-01T14:00:37;17.30;42.90
44063;DHT22;29727;47.606;19.130;2023-03-01T14:03:10;17.40;42.90
44063;DHT22;29727;47.606;19.130;2023-03-01T14:05:36;17.50;42.70
44063;DHT22;29727;47.606;19.130;2023-03-01T14:08:21;17.50;43.20
44063;DHT22;29727;47.606;19.130;2023-03-01T14:13:48;17.60;42.20
44063;DHT22;29727;47.606;19.130;2023-03-01T14:19:29;17.50;42.40
44063;DHT22;29727;47.606;19.130;2023-03-01T14:24:55;17.40;42.30
44063;DHT22;29727;47.606;19.130;2023-03-01T14:27:25;17.20;43.00
44063;DHT22;29727;47.606;19.130;2023-03-01T14:29:56;17.20;43.80
44063;DHT22;29727;47.606;19.130;2023-03-01T14:32:26;17.10;42.70
44063;DHT22;29727;47.606;19.130;2023-03-01T14:34:52;17.00;43.20
44063;DHT22;29727;47.606;19.130;2023-03-01T14:37:29;17.00;43.10
44063;DHT22;29727;47.606;19.130;2023-03-01T14:39:57;16.90;43.70
44063;DHT22;29727;47.606;19.130;2023-03-01T14:42:25;16.80;43.10
44063;DHT22;29727;47.606;19.130;2023-03-01T14:44:54;16.70;43.90
44063;DHT22;29727;47.606;19.130;2023-03-01T14:47:34;16.70;43.80
44063;DHT22;29727;47.606;19.130;2023-03-01T14:50:27;16.60;43.30
44063;DHT22;29727;47.606;19.130;2023-03-01T14:53:01;16.60;43.30
44063;DHT22;29727;47.606;19.130;2023-03-01T14:55:34;16.50;44.10
44063;DHT22;29727;47.606;19.130;2023-03-01T14:58:09;16.50;44.80
44063;DHT22;29727;47.606;19.130;2023-03-01T15:00:37;16.50;43.90
44063;DHT22;29727;47.606;19.130;2023-03-01T15:03:17;16.40;44.30
44063;DHT22;29727;47.606;19.130;2023-03-01T15:05:45;16.40;44.10
44063;DHT22;29727;47.606;19.130;2023-03-01T15:08:19;16.30;44.20
44063;DHT22;29727;47.606;19.130;2023-03-01T15:13:40;16.10;44.10
44063;DHT22;29727;47.606;19.130;2023-03-01T15:16:27;16.00;44.60
44063;DHT22;29727;47.606;19.130;2023-03-01T15:21:33;15.80;45.60
44063;DHT22;29727;47.606;19.130;2023-03-01T15:26:49;15.80;45.40
44063;DHT22;29727;47.606;19.130;2023-03-01T15:29:20;15.80;45.70
44063;DHT22;29727;47.606;19.130;2023-03-01T15:31:58;15.80;45.10
44063;DHT22;29727;47.606;19.130;2023-03-01T15:34:37;15.80;44.80
44063;DHT22;29727;47.606;19.130;2023-03-01T15:37:05;15.70;44.90
44063;DHT22;29727;47.606;19.130;2023-03-01T15:39:41;15.50;45.30
44063;DHT22;29727;47.606;19.130;2023-03-01T15:45:11;15.10;46.30
44063;DHT22;29727;47.606;19.130;2023-03-01T15:47:51;14.90;46.70
44063;DHT22;29727;47.606;19.130;2023-03-01T15:50:21;14.90;46.90
44063;DHT22;29727;47.606;19.130;2023-03-01T15:52:47;14.80;46.90
44063;DHT22;29727;47.606;19.130;2023-03-01T15:55:23;14.80;47.10
44063;DHT22;29727;47.606;19.130;2023-03-01T15:57:49;14.80;47.20
44063;DHT22;29727;47.606;19.130;2023-03-01T16:00:16;14.80;47.40
44063;DHT22;29727;47.606;19.130;2023-03-01T16:02:43;14.80;47.60
44063;DHT22;29727;47.606;19.130;2023-03-01T16:05:33;14.70;47.70
44063;DHT22;29727;47.606;19.130;2023-03-01T16:08:00;14.70;47.40
44063;DHT22;29727;47.606;19.130;2023-03-01T16:10:27;14.70;47.70
44063;DHT22;29727;47.606;19.130;2023-03-01T16:12:53;14.60;47.40
44063;DHT22;29727;47.606;19.130;2023-03-01T16:17:45;14.60;49.00
44063;DHT22;29727;47.606;19.130;2023-03-01T16:20:12;14.50;49.30
44063;DHT22;29727;47.606;19.130;2023-03-01T16:22:44;14.50;50.00
44063;DHT22;29727;47.606;19.130;2023-03-01T16:25:11;14.50;49.80
44063;DHT22;29727;47.606;19.130;2023-03-01T16:27:37;14.50;49.90
44063;DHT22;29727;47.606;19.130;2023-03-01T16:30:05;14.40;50.40
44063;DHT22;29727;47.606;19.130;2023-03-01T16:32:31;14.40;50.30
44063;DHT22;29727;47.606;19.130;2023-03-01T16:34:57;14.30;50.70
44063;DHT22;29727;47.606;19.130;2023-03-01T16:37:22;14.20;50.70
44063;DHT22;29727;47.606;19.130;2023-03-01T16:39:48;14.20;50.90
44063;DHT22;29727;47.606;19.130;2023-03-01T16:42:17;14.10;50.80
44063;DHT22;29727;47.606;19.130;2023-03-01T16:44:43;14.00;50.80
44063;DHT22;29727;47.606;19.130;2023-03-01T16:47:08;14.00;51.20
44063;DHT22;29727;47.606;19.130;2023-03-01T16:49:34;13.90;51.30
44063;DHT22;29727;47.606;19.130;2023-03-01T16:52:00;13.80;52.00
44063;DHT22;29727;47.606;19.130;2023-03-01T16:54:25;13.70;52.00
44063;DHT22;29727;47.606;19.130;2023-03-01T16:56:51;13.50;51.50
44063;DHT22;29727;47.606;19.130;2023-03-01T16:59:17;13.50;52.20
44063;DHT22;29727;47.606;19.130;2023-03-01T17:01:44;13.40;52.20
44063;DHT22;29727;47.606;19.130;2023-03-01T17:04:12;13.40;52.30
44063;DHT22;29727;47.606;19.130;2023-03-01T17:06:37;13.30;52.80
44063;DHT22;29727;47.606;19.130;2023-03-01T17:09:03;13.20;53.00
44063;DHT22;29727;47.606;19.130;2023-03-01T17:11:29;13.10;53.20
44063;DHT22;29727;47.606;19.130;2023-03-01T17:13:55;13.00;53.30
44063;DHT22;29727;47.606;19.130;2023-03-01T17:16:21;13.00;53.40
44063;DHT22;29727;47.606;19.130;2023-03-01T17:18:47;12.80;53.40
44063;DHT22;29727;47.606;19.130;2023-03-01T17:21:14;12.70;53.80
44063;DHT22;29727;47.606;19.130;2023-03-01T17:23:42;12.70;54.00
44063;DHT22;29727;47.606;19.130;2023-03-01T17:26:08;12.60;54.00
44063;DHT22;29727;47.606;19.130;2023-03-01T17:28:35;12.50;54.10
44063;DHT22;29727;47.606;19.130;2023-03-01T17:31:03;12.40;54.10
44063;DHT22;29727;47.606;19.130;2023-03-01T17:33:29;12.40;54.40
44063;DHT22;29727;47.606;19.130;2023-03-01T17:35:58;12.30;54.50
44063;DHT22;29727;47.606;19.130;2023-03-01T17:38:24;12.20;55.00
44063;DHT22;29727;47.606;19.130;2023-03-01T17:40:50;12.20;55.00
44063;DHT22;29727;47.606;19.130;2023-03-01T17:43:16;12.10;55.10
44063;DHT22;29727;47.606;19.130;2023-03-01T17:45:43;12.00;55.30
44063;DHT22;29727;47.606;19.130;2023-03-01T17:48:13;12.00;55.30
44063;DHT22;29727;47.606;19.130;2023-03-01T17:50:39;11.90;55.30
44063;DHT22;29727;47.606;19.130;2023-03-01T17:53:06;11.80;55.50